createdAt,value
2023-04-24T00:00:01.143Z,0.00
2023-04-24T00:01:01.618Z,0.00
2023-04-24T00:02:02.133Z,0.00
2023-04-24T00:03:02.201Z,0.00
2023-04-24T00:04:02.293Z,0.00
2023-04-24T00:05:02.351Z,0.00
2023-04-24T00:06:02.820Z,0.00
2023-04-24T00:07:03.267Z,0.00
2023-04-24T00:08:03.728Z,0.00
2023-04-24T00:09:04.168Z,0.00
2023-04-24T00:10:04.599Z,0.00
2023-04-24T00:11:05.028Z,0.00
2023-04-24T00:12:05.447Z,0.00
2023-04-24T00:13:05.896Z,0.00
2023-04-24T00:14:06.321Z,0.00
2023-04-24T00:15:06.835Z,0.00
2023-04-24T00:16:07.344Z,0.00
2023-04-24T00:17:07.859Z,0.00
2023-04-24T00:18:07.896Z,0.00
2023-04-24T00:19:08.365Z,0.00
2023-04-24T00:20:08.809Z,0.00
2023-04-24T00:21:09.257Z,0.00
2023-04-24T00:22:09.706Z,0.00
2023-04-24T00:23:10.142Z,0.00
2023-04-24T00:24:10.573Z,0.00
2023-04-24T00:25:11.006Z,0.00
2023-04-24T00:26:11.440Z,0.00
2023-04-24T00:27:11.868Z,0.00
2023-04-24T00:28:12.334Z,0.00
2023-04-24T00:29:12.782Z,0.00
2023-04-24T00:30:13.200Z,0.00
2023-04-24T00:31:13.638Z,0.00
2023-04-24T00:32:14.127Z,0.00
2023-04-24T00:33:14.581Z,0.00
2023-04-24T00:34:15.026Z,0.00
2023-04-24T00:35:15.485Z,0.00
2023-04-24T00:36:15.924Z,0.00
2023-04-24T00:37:16.387Z,0.00
2023-04-24T00:38:16.859Z,0.00
2023-04-24T00:39:17.306Z,0.00
2023-04-24T00:40:17.754Z,0.00
2023-04-24T00:41:18.196Z,0.00
2023-04-24T00:42:18.643Z,0.00
2023-04-24T00:43:19.081Z,0.00
2023-04-24T00:44:19.564Z,0.00
2023-04-24T00:45:20.005Z,0.00
2023-04-24T00:46:20.560Z,0.00
2023-04-24T00:47:20.475Z,0.00
2023-04-24T00:48:20.952Z,0.00
2023-04-24T00:49:21.416Z,0.00
2023-04-24T00:50:21.879Z,0.00
2023-04-24T00:51:22.317Z,0.00
2023-04-24T00:52:22.751Z,0.00
2023-04-24T00:53:23.182Z,0.00
2023-04-24T00:54:23.610Z,0.00
2023-04-24T00:55:24.057Z,0.00
2023-04-24T00:56:24.498Z,0.00
2023-04-24T00:57:24.942Z,0.00
2023-04-24T00:58:25.392Z,0.00
2023-04-24T00:59:25.820Z,0.00
2023-04-24T01:00:26.271Z,0.00
2023-04-24T01:01:26.737Z,0.00
2023-04-24T01:02:27.397Z,0.00
2023-04-24T01:03:27.566Z,0.00
2023-04-24T01:04:27.646Z,0.00
2023-04-24T01:05:27.539Z,0.00
2023-04-24T01:06:28.028Z,0.00
2023-04-24T01:07:28.470Z,0.00
2023-04-24T01:08:28.889Z,0.00
2023-04-24T01:09:29.326Z,0.00
2023-04-24T01:10:29.760Z,0.00
2023-04-24T01:11:30.322Z,0.00
2023-04-24T01:12:30.228Z,0.00
2023-04-24T01:13:30.668Z,0.00
2023-04-24T01:14:31.086Z,0.00
2023-04-24T01:15:31.536Z,0.00
2023-04-24T01:16:31.990Z,0.00
2023-04-24T01:17:32.453Z,0.00
2023-04-24T01:18:32.915Z,0.00
2023-04-24T01:19:33.353Z,0.00
2023-04-24T01:20:33.827Z,0.00
2023-04-24T01:21:34.280Z,0.00
2023-04-24T01:22:34.730Z,0.00
2023-04-24T01:23:35.172Z,0.00
2023-04-24T01:24:35.617Z,0.00
2023-04-24T01:25:36.126Z,0.00
2023-04-24T01:26:36.587Z,0.00
2023-04-24T01:27:37.010Z,0.00
2023-04-24T01:28:37.428Z,0.00
2023-04-24T01:29:37.837Z,0.00
2023-04-24T01:30:38.237Z,0.00
2023-04-24T01:31:38.713Z,0.00
2023-04-24T01:32:39.400Z,0.00
2023-04-24T01:33:39.282Z,0.00
2023-04-24T01:34:39.708Z,0.00
2023-04-24T01:35:40.127Z,0.00
2023-04-24T01:36:40.586Z,0.00
2023-04-24T01:37:41.037Z,0.00
2023-04-24T01:38:41.527Z,0.00
2023-04-24T01:39:42.401Z,0.00
2023-04-24T01:40:42.465Z,0.00
2023-04-24T01:41:42.918Z,0.00
2023-04-24T01:42:43.359Z,0.00
2023-04-24T01:43:43.792Z,0.00
2023-04-24T01:44:44.228Z,0.00
2023-04-24T01:45:44.682Z,0.00
2023-04-24T01:46:45.154Z,0.00
2023-04-24T01:47:45.642Z,0.00
2023-04-24T01:48:46.107Z,0.00
2023-04-24T01:49:46.556Z,0.00
2023-04-24T01:50:46.987Z,0.00
2023-04-24T01:51:47.426Z,0.00
2023-04-24T01:52:47.880Z,0.00
2023-04-24T01:53:48.318Z,0.00
2023-04-24T01:54:48.816Z,0.00
2023-04-24T01:55:49.267Z,0.00
2023-04-24T01:56:49.699Z,0.00
2023-04-24T01:57:50.109Z,0.00
2023-04-24T01:58:50.530Z,0.00
2023-04-24T01:59:50.972Z,0.00
2023-04-24T02:00:51.454Z,0.00
2023-04-24T02:01:51.973Z,0.00
2023-04-24T02:02:52.662Z,0.00
2023-04-24T02:03:52.760Z,0.00
2023-04-24T02:04:52.706Z,0.00
2023-04-24T02:05:53.114Z,0.00
2023-04-24T02:06:53.522Z,0.00
2023-04-24T02:07:53.957Z,0.00
2023-04-24T02:08:54.400Z,0.00
2023-04-24T02:09:54.818Z,0.00
2023-04-24T02:10:55.241Z,0.00
2023-04-24T02:11:55.679Z,0.00
2023-04-24T02:12:56.140Z,0.00
2023-04-24T02:13:56.574Z,0.00
2023-04-24T02:14:56.998Z,0.00
2023-04-24T02:15:57.462Z,0.00
2023-04-24T02:16:57.915Z,0.00
2023-04-24T02:17:58.408Z,0.00
2023-04-24T02:18:58.869Z,0.00
2023-04-24T02:19:59.326Z,0.00
2023-04-24T02:20:59.756Z,0.00
2023-04-24T02:22:00.181Z,0.00
2023-04-24T02:23:00.606Z,0.00
2023-04-24T02:24:01.062Z,0.00
2023-04-24T02:25:01.532Z,0.00
2023-04-24T02:26:01.966Z,0.00
2023-04-24T02:27:02.387Z,0.00
2023-04-24T02:28:02.779Z,0.00
2023-04-24T02:29:03.189Z,0.00
2023-04-24T02:30:03.654Z,0.00
2023-04-24T02:31:04.119Z,0.00
2023-04-24T02:32:04.623Z,0.00
2023-04-24T02:33:04.558Z,0.00
2023-04-24T02:34:04.994Z,0.00
2023-04-24T02:35:05.435Z,0.00
2023-04-24T02:36:05.921Z,0.00
2023-04-24T02:37:06.391Z,0.00
2023-04-24T02:38:06.839Z,0.00
2023-04-24T02:39:07.307Z,0.00
2023-04-24T02:40:07.768Z,0.00
2023-04-24T02:41:08.223Z,0.00
2023-04-24T02:42:08.691Z,0.00
2023-04-24T02:43:09.147Z,0.00
2023-04-24T02:44:09.608Z,0.00
2023-04-24T02:45:10.095Z,0.00
2023-04-24T02:46:10.598Z,0.00
2023-04-24T02:47:10.528Z,0.00
2023-04-24T02:48:10.993Z,0.00
2023-04-24T02:49:11.440Z,0.00
2023-04-24T02:50:11.892Z,0.00
2023-04-24T02:51:12.357Z,0.00
2023-04-24T02:52:12.844Z,0.00
2023-04-24T02:53:13.306Z,0.00
2023-04-24T02:54:13.774Z,0.00
2023-04-24T02:55:14.245Z,0.00
2023-04-24T02:56:14.713Z,0.00
2023-04-24T02:57:15.158Z,0.00
2023-04-24T02:58:15.602Z,0.00
2023-04-24T02:59:16.058Z,0.00
2023-04-24T03:00:16.489Z,0.00
2023-04-24T03:01:16.962Z,0.00
2023-04-24T03:02:17.496Z,0.00
2023-04-24T03:03:18.167Z,0.00
2023-04-24T03:04:18.240Z,0.00
2023-04-24T03:05:18.194Z,0.00
2023-04-24T03:06:18.650Z,0.00
2023-04-24T03:07:19.100Z,0.00
2023-04-24T03:08:19.561Z,0.00
2023-04-24T03:09:20.014Z,0.00
2023-04-24T03:10:20.464Z,0.00
2023-04-24T03:11:20.923Z,0.00
2023-04-24T03:12:21.359Z,0.00
2023-04-24T03:13:21.802Z,0.00
2023-04-24T03:14:22.229Z,0.00
2023-04-24T03:15:22.655Z,0.00
2023-04-24T03:16:23.108Z,0.00
2023-04-24T03:17:23.577Z,0.00
2023-04-24T03:18:24.006Z,0.00
2023-04-24T03:19:24.422Z,0.00
2023-04-24T03:20:24.870Z,0.00
2023-04-24T03:21:25.310Z,0.00
2023-04-24T03:22:25.758Z,0.00
2023-04-24T03:23:26.200Z,0.00
2023-04-24T03:24:26.642Z,0.00
2023-04-24T03:25:27.071Z,0.00
2023-04-24T03:26:27.521Z,0.00
2023-04-24T03:27:27.942Z,0.00
2023-04-24T03:28:28.384Z,0.00
2023-04-24T03:29:30.354Z,0.00
2023-04-24T03:30:29.173Z,0.00
2023-04-24T03:31:29.616Z,0.00
2023-04-24T03:32:30.113Z,0.00
2023-04-24T03:33:30.568Z,0.00
2023-04-24T03:34:31.013Z,0.00
2023-04-24T03:35:31.464Z,0.00
2023-04-24T03:36:31.899Z,0.00
2023-04-24T03:37:32.333Z,0.00
2023-04-24T03:38:32.777Z,0.00
2023-04-24T03:39:33.215Z,0.00
2023-04-24T03:40:33.642Z,0.00
2023-04-24T03:41:34.150Z,0.00
2023-04-24T03:42:34.614Z,0.00
2023-04-24T03:43:35.052Z,0.00
2023-04-24T03:44:35.495Z,0.00
2023-04-24T03:45:35.902Z,0.00
2023-04-24T03:46:36.331Z,0.00
2023-04-24T03:47:36.799Z,0.00
2023-04-24T03:48:37.296Z,0.00
2023-04-24T03:49:37.739Z,0.00
2023-04-24T03:50:38.159Z,0.00
2023-04-24T03:51:38.616Z,0.00
2023-04-24T03:52:39.055Z,0.00
2023-04-24T03:53:39.502Z,0.00
2023-04-24T03:54:39.947Z,0.00
2023-04-24T03:55:40.378Z,0.00
2023-04-24T03:56:40.811Z,0.00
2023-04-24T03:57:41.266Z,0.00
2023-04-24T03:58:41.713Z,0.00
2023-04-24T03:59:42.368Z,0.00
2023-04-24T04:00:42.390Z,0.00
2023-04-24T04:01:44.106Z,0.00
2023-04-24T04:02:43.073Z,0.00
2023-04-24T04:03:43.212Z,0.00
2023-04-24T04:04:43.558Z,0.00
2023-04-24T04:05:43.516Z,0.00
2023-04-24T04:06:43.977Z,0.00
2023-04-24T04:07:44.415Z,0.00
2023-04-24T04:08:44.833Z,0.00
2023-04-24T04:09:45.445Z,0.00
2023-04-24T04:10:45.366Z,0.00
2023-04-24T04:11:45.779Z,0.00
2023-04-24T04:12:46.220Z,0.00
2023-04-24T04:13:46.625Z,0.00
2023-04-24T04:14:47.099Z,0.00
2023-04-24T04:15:47.543Z,0.00
2023-04-24T04:16:48.077Z,0.00
2023-04-24T04:17:48.014Z,0.00
2023-04-24T04:18:48.499Z,0.00
2023-04-24T04:19:48.954Z,0.00
2023-04-24T04:20:49.402Z,0.00
2023-04-24T04:21:49.842Z,0.00
2023-04-24T04:22:50.285Z,0.00
2023-04-24T04:23:50.745Z,5.62
2023-04-24T04:24:51.209Z,5.62
2023-04-24T04:25:51.637Z,5.62
2023-04-24T04:26:52.287Z,5.62
2023-04-24T04:27:52.232Z,5.62
2023-04-24T04:28:52.643Z,5.62
2023-04-24T04:29:53.086Z,11.25
2023-04-24T04:30:53.506Z,5.62
2023-04-24T04:31:53.970Z,5.62
2023-04-24T04:32:54.426Z,5.62
2023-04-24T04:33:54.838Z,5.62
2023-04-24T04:34:55.246Z,5.62
2023-04-24T04:35:55.635Z,5.62
2023-04-24T04:36:56.030Z,5.62
2023-04-24T04:37:56.427Z,5.62
2023-04-24T04:38:56.871Z,5.62
2023-04-24T04:39:57.309Z,5.62
2023-04-24T04:40:57.741Z,5.62
2023-04-24T04:41:58.179Z,5.62
2023-04-24T04:42:58.628Z,5.62
2023-04-24T04:43:59.089Z,5.62
2023-04-24T04:44:59.535Z,5.62
2023-04-24T04:46:00.009Z,5.62
2023-04-24T04:47:00.502Z,5.62
2023-04-24T04:48:00.980Z,5.62
2023-04-24T04:49:01.480Z,11.25
2023-04-24T04:50:01.950Z,11.25
2023-04-24T04:51:02.402Z,5.62
2023-04-24T04:52:02.872Z,5.62
2023-04-24T04:53:03.345Z,5.62
2023-04-24T04:54:03.802Z,5.62
2023-04-24T04:55:04.294Z,5.62
2023-04-24T04:56:04.733Z,11.25
2023-04-24T04:57:05.192Z,11.25
2023-04-24T04:58:05.651Z,11.25
2023-04-24T04:59:06.128Z,11.25
2023-04-24T05:00:06.593Z,11.25
2023-04-24T05:01:07.097Z,11.25
2023-04-24T05:02:07.681Z,11.25
2023-04-24T05:03:20.173Z,5.62
2023-04-24T05:04:07.991Z,5.62
2023-04-24T05:05:07.987Z,5.62
2023-04-24T05:06:08.461Z,5.62
2023-04-24T05:07:08.918Z,5.62
2023-04-24T05:08:19.792Z,5.62
2023-04-24T05:09:09.490Z,5.62
2023-04-24T05:10:09.952Z,5.62
2023-04-24T05:11:10.405Z,5.62
2023-04-24T05:12:10.865Z,11.25
2023-04-24T05:13:11.595Z,11.25
2023-04-24T05:14:11.634Z,11.25
2023-04-24T05:15:12.075Z,16.88
2023-04-24T05:16:12.497Z,16.88
2023-04-24T05:17:12.962Z,16.88
2023-04-24T05:18:13.445Z,16.88
2023-04-24T05:19:13.867Z,16.88
2023-04-24T05:20:14.280Z,16.88
2023-04-24T05:21:14.716Z,16.88
2023-04-24T05:22:15.151Z,22.50
2023-04-24T05:23:15.578Z,22.50
2023-04-24T05:24:16.010Z,28.12
2023-04-24T05:25:16.447Z,28.12
2023-04-24T05:26:16.867Z,28.12
2023-04-24T05:27:17.298Z,28.12
2023-04-24T05:28:17.730Z,28.12
2023-04-24T05:29:18.164Z,33.75
2023-04-24T05:30:18.589Z,39.38
2023-04-24T05:31:19.032Z,39.38
2023-04-24T05:32:19.500Z,39.38
2023-04-24T05:33:19.920Z,39.38
2023-04-24T05:34:20.345Z,39.38
2023-04-24T05:35:20.776Z,33.75
2023-04-24T05:36:21.217Z,33.75
2023-04-24T05:37:21.657Z,28.12
2023-04-24T05:38:22.137Z,28.12
2023-04-24T05:39:22.665Z,28.12
2023-04-24T05:40:23.108Z,28.12
2023-04-24T05:41:23.534Z,33.75
2023-04-24T05:42:23.959Z,39.38
2023-04-24T05:43:24.372Z,39.38
2023-04-24T05:44:24.809Z,45.00
2023-04-24T05:45:25.257Z,45.00
2023-04-24T05:46:25.723Z,50.62
2023-04-24T05:47:26.184Z,50.62
2023-04-24T05:48:26.628Z,45.00
2023-04-24T05:49:27.072Z,45.00
2023-04-24T05:50:27.486Z,45.00
2023-04-24T05:51:27.915Z,50.62
2023-04-24T05:52:28.349Z,50.62
2023-04-24T05:53:28.791Z,56.25
2023-04-24T05:54:29.219Z,56.25
2023-04-24T05:55:29.658Z,61.88
2023-04-24T05:56:30.083Z,61.88
2023-04-24T05:57:30.514Z,61.88
2023-04-24T05:58:31.027Z,61.88
2023-04-24T05:59:31.451Z,61.88
2023-04-24T06:00:31.886Z,67.50
2023-04-24T06:01:32.377Z,73.12
2023-04-24T06:02:32.968Z,78.75
2023-04-24T06:03:33.015Z,90.00
2023-04-24T06:04:33.056Z,90.00
2023-04-24T06:05:33.112Z,78.75
2023-04-24T06:06:33.004Z,73.12
2023-04-24T06:07:33.442Z,73.12
2023-04-24T06:08:33.893Z,78.75
2023-04-24T06:09:34.350Z,84.38
2023-04-24T06:10:34.805Z,73.12
2023-04-24T06:11:35.251Z,67.50
2023-04-24T06:12:35.691Z,67.50
2023-04-24T06:13:36.122Z,61.88
2023-04-24T06:14:36.562Z,56.25
2023-04-24T06:15:37.002Z,56.25
2023-04-24T06:16:37.506Z,61.88
2023-04-24T06:17:37.575Z,73.12
2023-04-24T06:18:37.427Z,78.75
2023-04-24T06:19:37.866Z,84.38
2023-04-24T06:20:38.300Z,90.00
2023-04-24T06:21:38.734Z,101.25
2023-04-24T06:22:39.184Z,106.88
2023-04-24T06:23:39.616Z,101.25
2023-04-24T06:24:40.038Z,90.00
2023-04-24T06:25:40.467Z,84.38
2023-04-24T06:26:40.896Z,90.00
2023-04-24T06:27:41.367Z,101.25
2023-04-24T06:28:41.859Z,106.88
2023-04-24T06:29:42.470Z,106.88
2023-04-24T06:30:42.468Z,95.62
2023-04-24T06:31:42.918Z,90.00
2023-04-24T06:32:43.388Z,95.62
2023-04-24T06:33:43.831Z,101.25
2023-04-24T06:34:44.281Z,112.50
2023-04-24T06:35:44.747Z,118.12
2023-04-24T06:36:45.218Z,112.50
2023-04-24T06:37:45.679Z,106.88
2023-04-24T06:38:46.141Z,101.25
2023-04-24T06:39:46.614Z,106.88
2023-04-24T06:40:47.084Z,118.12
2023-04-24T06:41:47.524Z,129.38
2023-04-24T06:42:47.977Z,135.00
2023-04-24T06:43:48.462Z,140.62
2023-04-24T06:44:48.970Z,146.25
2023-04-24T06:45:49.485Z,135.00
2023-04-24T06:46:49.972Z,129.38
2023-04-24T06:47:50.638Z,112.50
2023-04-24T06:48:50.593Z,101.25
2023-04-24T06:49:51.064Z,90.00
2023-04-24T06:50:51.524Z,90.00
2023-04-24T06:51:51.963Z,84.38
2023-04-24T06:52:52.408Z,95.62
2023-04-24T06:53:52.885Z,101.25
2023-04-24T06:54:53.379Z,118.12
2023-04-24T06:55:53.874Z,118.12
2023-04-24T06:56:54.354Z,106.88
2023-04-24T06:57:54.834Z,106.88
2023-04-24T06:58:55.309Z,90.00
2023-04-24T06:59:55.755Z,84.38
2023-04-24T07:00:56.262Z,84.38
2023-04-24T07:01:56.857Z,84.38
2023-04-24T07:02:56.847Z,84.38
2023-04-24T07:03:56.926Z,84.38
2023-04-24T07:04:56.926Z,84.38
2023-04-24T07:05:57.392Z,84.38
2023-04-24T07:06:57.838Z,84.38
2023-04-24T07:07:58.283Z,90.00
2023-04-24T07:08:58.758Z,90.00
2023-04-24T07:09:59.233Z,90.00
2023-04-24T07:10:59.706Z,90.00
2023-04-24T07:12:00.183Z,90.00
2023-04-24T07:13:00.645Z,90.00
2023-04-24T07:14:01.110Z,90.00
2023-04-24T07:15:01.584Z,95.62
2023-04-24T07:16:02.083Z,112.50
2023-04-24T07:17:02.583Z,123.75
2023-04-24T07:18:05.607Z,118.12
2023-04-24T07:19:03.596Z,135.00
2023-04-24T07:20:04.084Z,146.25
2023-04-24T07:21:04.577Z,123.75
2023-04-24T07:22:05.063Z,112.50
2023-04-24T07:23:05.541Z,123.75
2023-04-24T07:24:06.034Z,135.00
2023-04-24T07:25:06.549Z,163.12
2023-04-24T07:26:07.047Z,191.25
2023-04-24T07:27:07.569Z,247.50
2023-04-24T07:28:08.061Z,225.00
2023-04-24T07:29:08.569Z,225.00
2023-04-24T07:30:09.099Z,196.88
2023-04-24T07:31:09.598Z,146.25
2023-04-24T07:32:10.055Z,146.25
2023-04-24T07:33:10.566Z,163.12
2023-04-24T07:34:11.056Z,196.88
2023-04-24T07:35:11.545Z,185.62
2023-04-24T07:36:12.032Z,225.00
2023-04-24T07:37:12.503Z,253.12
2023-04-24T07:38:12.962Z,236.25
2023-04-24T07:39:13.420Z,241.88
2023-04-24T07:40:13.914Z,253.12
2023-04-24T07:41:14.402Z,236.25
2023-04-24T07:42:14.893Z,264.38
2023-04-24T07:43:15.360Z,196.88
2023-04-24T07:44:15.908Z,219.38
2023-04-24T07:45:16.424Z,309.38
2023-04-24T07:46:16.925Z,298.12
2023-04-24T07:47:16.932Z,247.50
2023-04-24T07:48:16.936Z,241.88
2023-04-24T07:49:19.184Z,315.00
2023-04-24T07:50:16.925Z,331.88
2023-04-24T07:51:17.412Z,303.75
2023-04-24T07:52:17.881Z,258.75
2023-04-24T07:53:18.350Z,281.25
2023-04-24T07:54:18.863Z,303.75
2023-04-24T07:55:21.006Z,286.88
2023-04-24T07:56:19.677Z,225.00
2023-04-24T07:57:20.150Z,202.50
2023-04-24T07:58:20.619Z,168.75
2023-04-24T07:59:21.175Z,135.00
2023-04-24T08:00:20.969Z,90.00
2023-04-24T08:01:21.431Z,78.75
2023-04-24T08:02:21.898Z,101.25
2023-04-24T08:03:22.458Z,118.12
2023-04-24T08:04:22.562Z,101.25
2023-04-24T08:05:22.701Z,95.62
2023-04-24T08:06:22.711Z,118.12
2023-04-24T08:07:23.174Z,146.25
2023-04-24T08:08:23.698Z,146.25
2023-04-24T08:09:23.809Z,174.38
2023-04-24T08:10:23.869Z,196.88
2023-04-24T08:11:24.966Z,180.00
2023-04-24T08:12:24.407Z,180.00
2023-04-24T08:13:24.893Z,219.38
2023-04-24T08:14:25.386Z,236.25
2023-04-24T08:15:25.876Z,219.38
2023-04-24T08:16:26.373Z,225.00
2023-04-24T08:17:27.155Z,208.12
2023-04-24T08:18:27.065Z,196.88
2023-04-24T08:19:27.524Z,191.25
2023-04-24T08:20:28.012Z,168.75
2023-04-24T08:21:28.471Z,135.00
2023-04-24T08:22:28.919Z,135.00
2023-04-24T08:23:29.389Z,135.00
2023-04-24T08:24:29.871Z,135.00
2023-04-24T08:25:30.332Z,151.88
2023-04-24T08:26:30.882Z,174.38
2023-04-24T08:27:31.390Z,247.50
2023-04-24T08:28:31.867Z,326.25
2023-04-24T08:29:32.353Z,393.75
2023-04-24T08:30:32.826Z,376.88
2023-04-24T08:31:33.353Z,303.75
2023-04-24T08:32:33.933Z,247.50
2023-04-24T08:33:33.828Z,331.88
2023-04-24T08:34:34.318Z,309.38
2023-04-24T08:35:34.791Z,202.50
2023-04-24T08:36:46.035Z,163.12
2023-04-24T08:37:35.394Z,163.12
2023-04-24T08:38:35.844Z,168.75
2023-04-24T08:39:36.311Z,185.62
2023-04-24T08:40:36.784Z,241.88
2023-04-24T08:41:37.317Z,185.62
2023-04-24T08:42:37.240Z,174.38
2023-04-24T08:43:37.700Z,157.50
2023-04-24T08:44:38.474Z,157.50
2023-04-24T08:45:38.374Z,129.38
2023-04-24T08:46:38.917Z,118.12
2023-04-24T08:47:39.448Z,140.62
2023-04-24T08:48:39.352Z,140.62
2023-04-24T08:49:39.818Z,151.88
2023-04-24T08:50:40.303Z,129.38
2023-04-24T08:51:40.803Z,118.12
2023-04-24T08:52:41.270Z,106.88
2023-04-24T08:53:41.749Z,101.25
2023-04-24T08:54:42.238Z,78.75
2023-04-24T08:55:42.711Z,84.38
2023-04-24T08:56:43.197Z,90.00
2023-04-24T08:57:43.659Z,106.88
2023-04-24T08:58:44.150Z,129.38
2023-04-24T08:59:44.898Z,157.50
2023-04-24T09:00:44.930Z,185.62
2023-04-24T09:01:45.501Z,219.38
2023-04-24T09:02:45.637Z,253.12
2023-04-24T09:03:45.781Z,303.75
2023-04-24T09:04:45.901Z,326.25
2023-04-24T09:05:45.895Z,326.25
2023-04-24T09:06:46.390Z,275.62
2023-04-24T09:07:46.898Z,270.00
2023-04-24T09:08:47.362Z,303.75
2023-04-24T09:09:47.828Z,354.38
2023-04-24T09:10:51.071Z,376.88
2023-04-24T09:11:48.259Z,388.12
2023-04-24T09:12:48.741Z,382.50
2023-04-24T09:13:49.224Z,348.75
2023-04-24T09:14:49.702Z,343.12
2023-04-24T09:15:50.169Z,376.88
2023-04-24T09:16:50.736Z,326.25
2023-04-24T09:17:50.719Z,315.00
2023-04-24T09:18:51.210Z,331.88
2023-04-24T09:19:51.686Z,360.00
2023-04-24T09:20:52.143Z,360.00
2023-04-24T09:21:52.619Z,393.75
2023-04-24T09:22:53.090Z,427.50
2023-04-24T09:23:53.532Z,461.25
2023-04-24T09:24:53.975Z,433.12
2023-04-24T09:25:54.406Z,360.00
2023-04-24T09:26:54.868Z,298.12
2023-04-24T09:27:55.335Z,303.75
2023-04-24T09:28:55.772Z,298.12
2023-04-24T09:29:56.212Z,219.38
2023-04-24T09:30:56.651Z,185.62
2023-04-24T09:31:57.275Z,157.50
2023-04-24T09:32:57.303Z,146.25
2023-04-24T09:33:58.533Z,191.25
2023-04-24T09:34:57.258Z,230.62
2023-04-24T09:35:57.717Z,241.88
2023-04-24T09:36:58.158Z,185.62
2023-04-24T09:37:58.618Z,129.38
2023-04-24T09:38:59.071Z,112.50
2023-04-24T09:39:59.522Z,129.38
2023-04-24T09:40:59.994Z,123.75
2023-04-24T09:42:00.439Z,112.50
2023-04-24T09:43:00.913Z,118.12
2023-04-24T09:44:01.364Z,146.25
2023-04-24T09:45:11.894Z,202.50
2023-04-24T09:46:02.008Z,258.75
2023-04-24T09:47:01.909Z,320.62
2023-04-24T09:48:02.455Z,326.25
2023-04-24T09:49:02.418Z,320.62
2023-04-24T09:50:02.934Z,236.25
2023-04-24T09:51:02.813Z,174.38
2023-04-24T09:52:03.270Z,146.25
2023-04-24T09:53:03.754Z,112.50
2023-04-24T09:54:04.043Z,90.00
2023-04-24T09:55:04.507Z,101.25
2023-04-24T09:56:04.981Z,84.38
2023-04-24T09:57:05.436Z,84.38
2023-04-24T09:58:05.883Z,84.38
2023-04-24T09:59:06.324Z,90.00
2023-04-24T10:00:06.779Z,95.62
2023-04-24T10:01:07.326Z,112.50
2023-04-24T10:02:07.290Z,118.12
2023-04-24T10:03:07.871Z,129.38
2023-04-24T10:04:07.926Z,157.50
2023-04-24T10:05:08.450Z,180.00
2023-04-24T10:06:08.968Z,219.38
2023-04-24T10:07:09.433Z,270.00
2023-04-24T10:08:09.900Z,326.25
2023-04-24T10:09:10.365Z,360.00
2023-04-24T10:10:10.836Z,348.75
2023-04-24T10:11:11.315Z,343.12
2023-04-24T10:12:11.825Z,365.62
2023-04-24T10:13:12.323Z,388.12
2023-04-24T10:14:12.828Z,427.50
2023-04-24T10:15:13.316Z,438.75
2023-04-24T10:16:13.820Z,444.38
2023-04-24T10:17:13.735Z,438.75
2023-04-24T10:18:14.207Z,405.00
2023-04-24T10:19:14.682Z,466.88
2023-04-24T10:20:15.146Z,528.75
2023-04-24T10:21:15.623Z,545.62
2023-04-24T10:22:16.076Z,534.38
2023-04-24T10:23:16.546Z,528.75
2023-04-24T10:24:17.023Z,438.75
2023-04-24T10:25:17.505Z,405.00
2023-04-24T10:26:17.956Z,393.75
2023-04-24T10:27:18.406Z,517.50
2023-04-24T10:28:18.847Z,528.75
2023-04-24T10:29:19.292Z,528.75
2023-04-24T10:30:19.742Z,489.38
2023-04-24T10:31:20.209Z,360.00
2023-04-24T10:32:20.154Z,258.75
2023-04-24T10:33:20.068Z,196.88
2023-04-24T10:34:20.548Z,168.75
2023-04-24T10:35:20.985Z,135.00
2023-04-24T10:36:21.439Z,112.50
2023-04-24T10:37:21.899Z,95.62
2023-04-24T10:38:22.365Z,101.25
2023-04-24T10:39:27.650Z,123.75
2023-04-24T10:40:22.961Z,140.62
2023-04-24T10:41:23.434Z,151.88
2023-04-24T10:42:23.913Z,185.62
2023-04-24T10:43:24.367Z,208.12
2023-04-24T10:44:24.807Z,213.75
2023-04-24T10:45:25.249Z,202.50
2023-04-24T10:46:25.744Z,208.12
2023-04-24T10:47:25.646Z,241.88
2023-04-24T10:48:26.077Z,281.25
2023-04-24T10:49:26.514Z,326.25
2023-04-24T10:50:26.980Z,360.00
2023-04-24T10:51:27.452Z,421.88
2023-04-24T10:52:27.908Z,472.50
2023-04-24T10:53:28.377Z,540.00
2023-04-24T10:54:28.857Z,613.12
2023-04-24T10:55:29.318Z,641.25
2023-04-24T10:56:29.756Z,635.62
2023-04-24T10:57:30.209Z,618.75
2023-04-24T10:58:30.669Z,635.62
2023-04-24T10:59:31.114Z,646.88
2023-04-24T11:00:31.604Z,691.88
2023-04-24T11:01:32.138Z,658.12
2023-04-24T11:02:32.118Z,652.50
2023-04-24T11:03:32.281Z,691.88
2023-04-24T11:04:32.361Z,691.88
2023-04-24T11:05:32.245Z,506.25
2023-04-24T11:06:32.217Z,405.00
2023-04-24T11:07:32.664Z,371.25
2023-04-24T11:08:33.120Z,354.38
2023-04-24T11:09:33.561Z,326.25
2023-04-24T11:10:33.990Z,286.88
2023-04-24T11:11:34.423Z,247.50
2023-04-24T11:12:34.846Z,213.75
2023-04-24T11:13:35.294Z,202.50
2023-04-24T11:14:35.731Z,157.50
2023-04-24T11:15:36.164Z,146.25
2023-04-24T11:16:36.807Z,135.00
2023-04-24T11:17:36.823Z,112.50
2023-04-24T11:18:37.357Z,118.12
2023-04-24T11:19:37.236Z,123.75
2023-04-24T11:20:37.694Z,123.75
2023-04-24T11:21:38.142Z,135.00
2023-04-24T11:22:38.594Z,163.12
2023-04-24T11:23:39.044Z,219.38
2023-04-24T11:24:39.486Z,208.12
2023-04-24T11:25:39.928Z,174.38
2023-04-24T11:26:40.378Z,168.75
2023-04-24T11:27:40.856Z,174.38
2023-04-24T11:28:42.799Z,174.38
2023-04-24T11:29:41.542Z,180.00
2023-04-24T11:30:42.002Z,174.38
2023-04-24T11:31:42.676Z,174.38
2023-04-24T11:32:42.675Z,168.75
2023-04-24T11:33:42.641Z,168.75
2023-04-24T11:34:43.097Z,163.12
2023-04-24T11:35:43.609Z,151.88
2023-04-24T11:36:44.085Z,146.25
2023-04-24T11:37:44.663Z,140.62
2023-04-24T11:38:44.561Z,129.38
2023-04-24T11:39:45.033Z,123.75
2023-04-24T11:40:45.497Z,129.38
2023-04-24T11:41:45.957Z,123.75
2023-04-24T11:42:46.448Z,151.88
2023-04-24T11:43:46.912Z,196.88
2023-04-24T11:44:47.121Z,275.62
2023-04-24T11:45:47.141Z,354.38
2023-04-24T11:46:47.608Z,365.62
2023-04-24T11:47:48.109Z,298.12
2023-04-24T11:48:48.039Z,275.62
2023-04-24T11:49:48.492Z,253.12
2023-04-24T11:50:49.014Z,208.12
2023-04-24T11:51:53.587Z,168.75
2023-04-24T11:52:49.507Z,151.88
2023-04-24T11:53:57.876Z,118.12
2023-04-24T11:54:50.059Z,101.25
2023-04-24T11:55:50.530Z,90.00
2023-04-24T11:56:51.979Z,90.00
2023-04-24T11:57:51.259Z,95.62
2023-04-24T11:58:51.730Z,112.50
2023-04-24T11:59:52.470Z,112.50
2023-04-24T12:00:52.466Z,106.88
2023-04-24T12:01:52.350Z,112.50
2023-04-24T12:02:52.982Z,135.00
2023-04-24T12:03:53.194Z,180.00
2023-04-24T12:04:53.490Z,225.00
2023-04-24T12:05:53.228Z,264.38
2023-04-24T12:06:53.184Z,298.12
2023-04-24T12:07:53.656Z,365.62
2023-04-24T12:08:55.184Z,500.62
2023-04-24T12:09:54.085Z,697.50
2023-04-24T12:10:54.571Z,888.75
2023-04-24T12:11:55.046Z,1012.50
2023-04-24T12:12:55.514Z,900.00
2023-04-24T12:13:55.462Z,860.62
2023-04-24T12:14:55.887Z,877.50
2023-04-24T12:15:56.356Z,810.00
2023-04-24T12:16:56.851Z,815.62
2023-04-24T12:17:57.352Z,922.50
2023-04-24T12:18:57.262Z,1282.50
2023-04-24T12:19:57.737Z,1316.25
2023-04-24T12:21:01.344Z,1164.38
2023-04-24T12:21:58.394Z,770.62
2023-04-24T12:22:58.923Z,618.75
2023-04-24T12:23:58.696Z,399.38
2023-04-24T12:24:59.127Z,281.25
2023-04-24T12:25:59.557Z,247.50
2023-04-24T12:26:59.990Z,264.38
2023-04-24T12:28:00.405Z,230.62
2023-04-24T12:29:00.826Z,174.38
2023-04-24T12:30:01.260Z,140.62
2023-04-24T12:31:01.737Z,123.75
2023-04-24T12:32:01.635Z,95.62
2023-04-24T12:33:02.138Z,101.25
2023-04-24T12:34:02.042Z,146.25
2023-04-24T12:35:02.479Z,146.25
2023-04-24T12:36:02.921Z,180.00
2023-04-24T12:37:03.347Z,196.88
2023-04-24T12:38:03.803Z,258.75
2023-04-24T12:39:04.252Z,309.38
2023-04-24T12:40:04.716Z,315.00
2023-04-24T12:41:05.228Z,337.50
2023-04-24T12:42:05.676Z,371.25
2023-04-24T12:43:06.122Z,444.38
2023-04-24T12:44:06.558Z,551.25
2023-04-24T12:45:07.029Z,714.38
2023-04-24T12:46:07.488Z,798.75
2023-04-24T12:47:08.011Z,1440.00
2023-04-24T12:48:07.987Z,1035.00
2023-04-24T12:49:07.907Z,894.38
2023-04-24T12:50:08.402Z,1046.25
2023-04-24T12:51:08.865Z,1175.62
2023-04-24T12:52:09.329Z,4415.62
2023-04-24T12:53:09.797Z,888.75
2023-04-24T12:54:10.255Z,742.50
2023-04-24T12:55:10.699Z,551.25